Hindley, United Kingdom
Current Conditions -  °F | °C
As of 3:50 PM on Thursday 27 Nov 2014 (Local Time) from EGCC Reporting Station
Broken Clouds Broken Clouds  
Wind Chill: 46°   Ceiling: 1000
Heat Index: 46°   Visibility: 4mi
Dew Point: 46°   Wind: 2mph
Humidity: 100%   Direction: 130°SE
Pressure: 29.56"   Gusts: NA
Location:  53.54°N, 2.57°W
Report Text: EGCC 271550Z 13002KT 7000 SCT006 BKN010 BKN019 08/08 Q1001
Loading
Personal Weather Stations






























Interactive Weather Map New forecast layout! Learn more

10-Day Weather Forecast

Advertisements
Track Severe Weather on mobile